This is the latest recevied weather packets stored in our database for station/object WI5ARD. If no packets are shown the sender has not sent any weather packets the latest 10 day(s).
| Time | Temp. | Humidity | Pressure | Rain* | Wind** | Luminosity | Snow |
|---|---|---|---|---|---|---|---|
| 1778116220 | 25.56° C | 89% | 1012.3 hPa | 0 mm | - | 0 W/m² | - |
| 1778115650 | 25.56° C | 88% | 1012.6 hPa | 0 mm | - | 0 W/m² | - |
| 1778112619 | 26.11° C | 88% | 1012 hPa | 0 mm | - | 25 W/m² | - |
| 1778111138 | 26.11° C | 88% | 1011.9 hPa | 0 mm | - | 32 W/m² | - |
| 1778110253 | 26.67° C | 86% | 1011.9 hPa | 0 mm | - | 32 W/m² | - |
| 1778109921 | 26.67° C | 85% | 1011.9 hPa | 0 mm | - | 16 W/m² | - |
| 1778109618 | 27.22° C | 85% | 1011.8 hPa | 0 mm | - | 33 W/m² | - |
| 1778108121 | 27.22° C | 84% | 1011.8 hPa | 0 mm | - | 37 W/m² | - |
| 1778107819 | 27.22° C | 84% | 1011.9 hPa | 0 mm | - | 42 W/m² | - |
| 1778107536 | 27.22° C | 84% | 1011.9 hPa | 0 mm | - | 79 W/m² | - |
| 1778105736 | 27.78° C | 82% | 1012.1 hPa | 0 mm | - | 118 W/m² | - |
| 1778105419 | 27.78° C | 82% | 1012 hPa | 0 mm | - | 155 W/m² | - |
| 1778104834 | 27.78° C | 81% | 1012.5 hPa | 0 mm | - | 102 W/m² | - |
| 1778104521 | 27.78° C | 80% | 1012.5 hPa | 0 mm | - | 90 W/m² | - |
| 1778102717 | 28.33° C | 79% | 1013 hPa | 0 mm | - | 174 W/m² | - |
| 1778102137 | 28.33° C | 77% | 1013.1 hPa | 0 mm | - | 167 W/m² | - |
| 1778100917 | 28.33° C | 77% | 1013.1 hPa | 0 mm | - | 269 W/m² | - |
| 1778099120 | 28.33° C | 78% | 1013.2 hPa | 0 mm | - | 432 W/m² | - |
| 1778098537 | 28.33° C | 79% | 1013.3 hPa | 0 mm | - | 220 W/m² | - |
| 1778096419 | 28.33° C | 81% | 1014 hPa | 0 mm | - | 278 W/m² | - |
| 1778095220 | 28.33° C | 81% | 1014.2 hPa | 0 mm | - | 383 W/m² | - |
| 1778091919 | 27.78° C | 84% | 1015 hPa | 0 mm | - | 86 W/m² | - |
| 1778084134 | 25.56° C | 90% | 1015.7 hPa | 0 mm | - | 116 W/m² | - |
| 1778083241 | 25.56° C | 91% | 1015.5 hPa | 0 mm | - | 183 W/m² | - |
| 1778081118 | 25° C | 91% | 1015.4 hPa | 0 mm | - | 95 W/m² | - |
* Rain latest hour (hover to see other rain measurements)
** Current wind speed in m/s (hover to see current wind gust speed)